sensor_id;sensor_type;location;lat;lon;timestamp;temperature;humidity
8892;DHT22;4482;54.332;10.118;2022-10-16T00:00:46;12.50;99.90
8892;DHT22;4482;54.332;10.118;2022-10-16T00:03:13;12.50;99.90
8892;DHT22;4482;54.332;10.118;2022-10-16T00:05:42;12.50;99.90
8892;DHT22;4482;54.332;10.118;2022-10-16T00:08:10;12.50;99.90
8892;DHT22;4482;54.332;10.118;2022-10-16T00:10:37;12.50;99.90
8892;DHT22;4482;54.332;10.118;2022-10-16T00:13:06;12.40;99.90
8892;DHT22;4482;54.332;10.118;2022-10-16T00:15:34;12.40;99.90
8892;DHT22;4482;54.332;10.118;2022-10-16T00:18:03;12.40;99.90
8892;DHT22;4482;54.332;10.118;2022-10-16T00:20:30;12.40;99.90
8892;DHT22;4482;54.332;10.118;2022-10-16T00:22:59;12.40;99.90
8892;DHT22;4482;54.332;10.118;2022-10-16T00:25:26;12.40;99.90
8892;DHT22;4482;54.332;10.118;2022-10-16T00:27:53;12.30;99.90
8892;DHT22;4482;54.332;10.118;2022-10-16T00:30:21;12.30;99.90
8892;DHT22;4482;54.332;10.118;2022-10-16T00:32:48;12.30;99.90
8892;DHT22;4482;54.332;10.118;2022-10-16T00:35:15;12.30;99.90
8892;DHT22;4482;54.332;10.118;2022-10-16T00:37:42;12.30;99.90
8892;DHT22;4482;54.332;10.118;2022-10-16T00:40:10;12.30;99.90
8892;DHT22;4482;54.332;10.118;2022-10-16T00:42:36;12.30;99.90
8892;DHT22;4482;54.332;10.118;2022-10-16T00:45:04;12.30;99.90
8892;DHT22;4482;54.332;10.118;2022-10-16T00:47:36;12.20;99.90
8892;DHT22;4482;54.332;10.118;2022-10-16T00:50:08;12.20;99.90
8892;DHT22;4482;54.332;10.118;2022-10-16T00:52:36;12.20;99.90
8892;DHT22;4482;54.332;10.118;2022-10-16T00:55:06;12.20;99.90
8892;DHT22;4482;54.332;10.118;2022-10-16T00:57:35;12.20;99.90
8892;DHT22;4482;54.332;10.118;2022-10-16T01:00:03;12.20;99.90
8892;DHT22;4482;54.332;10.118;2022-10-16T01:02:30;12.20;99.90
8892;DHT22;4482;54.332;10.118;2022-10-16T01:04:59;12.20;99.90
8892;DHT22;4482;54.332;10.118;2022-10-16T01:07:34;12.10;99.90
8892;DHT22;4482;54.332;10.118;2022-10-16T01:10:07;12.20;99.90
8892;DHT22;4482;54.332;10.118;2022-10-16T01:12:40;12.20;99.90
8892;DHT22;4482;54.332;10.118;2022-10-16T01:15:13;12.10;99.90
8892;DHT22;4482;54.332;10.118;2022-10-16T01:17:47;12.20;99.90
8892;DHT22;4482;54.332;10.118;2022-10-16T01:20:24;12.20;99.90
8892;DHT22;4482;54.332;10.118;2022-10-16T01:23:20;12.10;99.90
8892;DHT22;4482;54.332;10.118;2022-10-16T01:26:19;12.10;99.90
8892;DHT22;4482;54.332;10.118;2022-10-16T01:28:52;12.10;99.90
8892;DHT22;4482;54.332;10.118;2022-10-16T01:31:23;12.20;99.90
8892;DHT22;4482;54.332;10.118;2022-10-16T01:33:56;12.20;99.90
8892;DHT22;4482;54.332;10.118;2022-10-16T01:36:28;12.10;99.90
8892;DHT22;4482;54.332;10.118;2022-10-16T01:38:58;12.10;99.90
8892;DHT22;4482;54.332;10.118;2022-10-16T01:41:31;12.20;99.90
8892;DHT22;4482;54.332;10.118;2022-10-16T01:44:02;12.20;99.90
8892;DHT22;4482;54.332;10.118;2022-10-16T01:46:30;12.20;99.90
8892;DHT22;4482;54.332;10.118;2022-10-16T01:48:59;12.20;99.90
8892;DHT22;4482;54.332;10.118;2022-10-16T01:51:28;12.20;99.90
8892;DHT22;4482;54.332;10.118;2022-10-16T01:53:59;12.20;99.90
8892;DHT22;4482;54.332;10.118;2022-10-16T01:56:27;12.20;99.90
8892;DHT22;4482;54.332;10.118;2022-10-16T01:59:00;12.20;99.90
8892;DHT22;4482;54.332;10.118;2022-10-16T02:01:30;12.20;99.90
8892;DHT22;4482;54.332;10.118;2022-10-16T02:04:02;12.20;99.90
8892;DHT22;4482;54.332;10.118;2022-10-16T02:06:30;12.20;99.90
8892;DHT22;4482;54.332;10.118;2022-10-16T02:08:59;12.20;99.90
8892;DHT22;4482;54.332;10.118;2022-10-16T02:11:25;12.20;99.90
8892;DHT22;4482;54.332;10.118;2022-10-16T02:13:55;12.20;99.90
8892;DHT22;4482;54.332;10.118;2022-10-16T02:16:33;12.20;99.90
8892;DHT22;4482;54.332;10.118;2022-10-16T02:19:00;12.20;99.90
8892;DHT22;4482;54.332;10.118;2022-10-16T02:21:31;12.20;99.90
8892;DHT22;4482;54.332;10.118;2022-10-16T02:24:04;12.20;99.90
8892;DHT22;4482;54.332;10.118;2022-10-16T02:26:40;12.20;99.90
8892;DHT22;4482;54.332;10.118;2022-10-16T02:29:13;12.20;99.90
8892;DHT22;4482;54.332;10.118;2022-10-16T02:31:46;12.20;99.90
8892;DHT22;4482;54.332;10.118;2022-10-16T02:34:16;12.20;99.90
8892;DHT22;4482;54.332;10.118;2022-10-16T02:36:45;12.20;99.90
8892;DHT22;4482;54.332;10.118;2022-10-16T02:39:15;12.20;99.90
8892;DHT22;4482;54.332;10.118;2022-10-16T02:41:42;12.20;99.90
8892;DHT22;4482;54.332;10.118;2022-10-16T02:44:09;12.20;99.90
8892;DHT22;4482;54.332;10.118;2022-10-16T02:46:36;12.20;99.90
8892;DHT22;4482;54.332;10.118;2022-10-16T02:49:05;12.20;99.90
8892;DHT22;4482;54.332;10.118;2022-10-16T02:51:32;12.20;99.90
8892;DHT22;4482;54.332;10.118;2022-10-16T02:53:58;12.20;99.90
8892;DHT22;4482;54.332;10.118;2022-10-16T02:56:25;12.20;99.90
8892;DHT22;4482;54.332;10.118;2022-10-16T02:58:52;12.20;99.90
8892;DHT22;4482;54.332;10.118;2022-10-16T03:01:22;12.10;99.90
8892;DHT22;4482;54.332;10.118;2022-10-16T03:03:49;12.10;99.90
8892;DHT22;4482;54.332;10.118;2022-10-16T03:06:17;12.10;99.90
8892;DHT22;4482;54.332;10.118;2022-10-16T03:08:44;12.10;99.90
8892;DHT22;4482;54.332;10.118;2022-10-16T03:11:11;12.10;99.90
8892;DHT22;4482;54.332;10.118;2022-10-16T03:13:37;12.00;99.90
8892;DHT22;4482;54.332;10.118;2022-10-16T03:16:04;12.00;99.90
8892;DHT22;4482;54.332;10.118;2022-10-16T03:18:31;12.00;99.90
8892;DHT22;4482;54.332;10.118;2022-10-16T03:20:58;12.00;99.90
8892;DHT22;4482;54.332;10.118;2022-10-16T03:23:26;12.00;99.90
8892;DHT22;4482;54.332;10.118;2022-10-16T03:25:53;12.00;99.90
8892;DHT22;4482;54.332;10.118;2022-10-16T03:28:20;12.00;99.90
8892;DHT22;4482;54.332;10.118;2022-10-16T03:30:47;12.00;99.90
8892;DHT22;4482;54.332;10.118;2022-10-16T03:33:14;11.90;99.90
8892;DHT22;4482;54.332;10.118;2022-10-16T03:35:40;11.90;99.90
8892;DHT22;4482;54.332;10.118;2022-10-16T03:38:07;11.90;99.90
8892;DHT22;4482;54.332;10.118;2022-10-16T03:40:39;11.90;99.90
8892;DHT22;4482;54.332;10.118;2022-10-16T03:43:06;11.80;99.90
8892;DHT22;4482;54.332;10.118;2022-10-16T03:45:33;11.80;99.90
8892;DHT22;4482;54.332;10.118;2022-10-16T03:48:00;11.80;99.90
8892;DHT22;4482;54.332;10.118;2022-10-16T03:50:28;11.80;99.90
8892;DHT22;4482;54.332;10.118;2022-10-16T03:52:54;11.90;99.90
8892;DHT22;4482;54.332;10.118;2022-10-16T03:55:21;12.00;99.90
8892;DHT22;4482;54.332;10.118;2022-10-16T03:57:49;11.90;99.90
8892;DHT22;4482;54.332;10.118;2022-10-16T04:00:16;11.80;99.90
8892;DHT22;4482;54.332;10.118;2022-10-16T04:02:43;11.80;99.90
8892;DHT22;4482;54.332;10.118;2022-10-16T04:05:10;11.80;99.90
8892;DHT22;4482;54.332;10.118;2022-10-16T04:07:37;11.80;99.90
8892;DHT22;4482;54.332;10.118;2022-10-16T04:10:05;11.70;99.90
8892;DHT22;4482;54.332;10.118;2022-10-16T04:12:31;11.80;99.90
8892;DHT22;4482;54.332;10.118;2022-10-16T04:15:00;11.80;99.90
8892;DHT22;4482;54.332;10.118;2022-10-16T04:17:26;11.80;99.90
8892;DHT22;4482;54.332;10.118;2022-10-16T04:19:53;11.80;99.90
8892;DHT22;4482;54.332;10.118;2022-10-16T04:22:20;11.80;99.90
8892;DHT22;4482;54.332;10.118;2022-10-16T04:24:47;11.80;99.90
8892;DHT22;4482;54.332;10.118;2022-10-16T04:27:14;11.80;99.90
8892;DHT22;4482;54.332;10.118;2022-10-16T04:29:40;11.80;99.90
8892;DHT22;4482;54.332;10.118;2022-10-16T04:32:09;11.80;99.90
8892;DHT22;4482;54.332;10.118;2022-10-16T04:34:36;11.80;99.90
8892;DHT22;4482;54.332;10.118;2022-10-16T04:37:03;11.80;99.90
8892;DHT22;4482;54.332;10.118;2022-10-16T04:39:30;11.80;99.90
8892;DHT22;4482;54.332;10.118;2022-10-16T04:41:57;11.80;99.90
8892;DHT22;4482;54.332;10.118;2022-10-16T04:44:24;11.80;99.90
8892;DHT22;4482;54.332;10.118;2022-10-16T04:46:50;11.90;99.90
8892;DHT22;4482;54.332;10.118;2022-10-16T04:49:19;12.00;99.90
8892;DHT22;4482;54.332;10.118;2022-10-16T04:51:45;11.90;99.90
8892;DHT22;4482;54.332;10.118;2022-10-16T04:54:13;11.90;99.90
8892;DHT22;4482;54.332;10.118;2022-10-16T04:56:40;12.00;99.90
8892;DHT22;4482;54.332;10.118;2022-10-16T04:59:12;12.00;99.90
8892;DHT22;4482;54.332;10.118;2022-10-16T05:01:39;12.00;99.90
8892;DHT22;4482;54.332;10.118;2022-10-16T05:04:06;12.00;99.90
8892;DHT22;4482;54.332;10.118;2022-10-16T05:06:34;12.00;99.90
8892;DHT22;4482;54.332;10.118;2022-10-16T05:09:01;12.00;99.90
8892;DHT22;4482;54.332;10.118;2022-10-16T05:11:28;12.00;99.90
8892;DHT22;4482;54.332;10.118;2022-10-16T05:13:54;12.00;99.90
8892;DHT22;4482;54.332;10.118;2022-10-16T05:16:21;12.00;99.90
8892;DHT22;4482;54.332;10.118;2022-10-16T05:18:48;12.00;99.90
8892;DHT22;4482;54.332;10.118;2022-10-16T05:21:15;12.00;99.90
8892;DHT22;4482;54.332;10.118;2022-10-16T05:23:43;12.00;99.90
8892;DHT22;4482;54.332;10.118;2022-10-16T05:26:10;12.00;99.90
8892;DHT22;4482;54.332;10.118;2022-10-16T05:28:37;12.00;99.90
8892;DHT22;4482;54.332;10.118;2022-10-16T05:31:06;12.00;99.90
8892;DHT22;4482;54.332;10.118;2022-10-16T05:33:33;12.00;99.90
8892;DHT22;4482;54.332;10.118;2022-10-16T05:36:01;12.00;99.90
8892;DHT22;4482;54.332;10.118;2022-10-16T05:38:28;12.00;99.90
8892;DHT22;4482;54.332;10.118;2022-10-16T05:40:56;12.00;99.90
8892;DHT22;4482;54.332;10.118;2022-10-16T05:43:23;11.90;99.90
8892;DHT22;4482;54.332;10.118;2022-10-16T05:45:57;12.00;99.90
8892;DHT22;4482;54.332;10.118;2022-10-16T05:48:24;12.10;99.90
8892;DHT22;4482;54.332;10.118;2022-10-16T05:50:59;12.10;99.90
8892;DHT22;4482;54.332;10.118;2022-10-16T05:53:27;12.00;99.90
8892;DHT22;4482;54.332;10.118;2022-10-16T05:55:56;12.00;99.90
8892;DHT22;4482;54.332;10.118;2022-10-16T05:58:23;12.00;99.90
8892;DHT22;4482;54.332;10.118;2022-10-16T06:00:54;12.10;99.90
8892;DHT22;4482;54.332;10.118;2022-10-16T06:03:21;12.10;99.90
8892;DHT22;4482;54.332;10.118;2022-10-16T06:05:48;12.10;99.90
8892;DHT22;4482;54.332;10.118;2022-10-16T06:08:15;12.10;99.90
8892;DHT22;4482;54.332;10.118;2022-10-16T06:10:42;12.10;99.90
8892;DHT22;4482;54.332;10.118;2022-10-16T06:13:12;12.20;99.90
8892;DHT22;4482;54.332;10.118;2022-10-16T06:15:39;12.20;99.90
8892;DHT22;4482;54.332;10.118;2022-10-16T06:18:08;12.20;99.90
8892;DHT22;4482;54.332;10.118;2022-10-16T06:20:35;12.20;99.90
8892;DHT22;4482;54.332;10.118;2022-10-16T06:23:02;12.20;99.90
8892;DHT22;4482;54.332;10.118;2022-10-16T06:25:29;12.20;99.90
8892;DHT22;4482;54.332;10.118;2022-10-16T06:27:56;12.30;99.90
8892;DHT22;4482;54.332;10.118;2022-10-16T06:30:24;12.30;99.90
8892;DHT22;4482;54.332;10.118;2022-10-16T06:32:51;12.40;99.90
8892;DHT22;4482;54.332;10.118;2022-10-16T06:35:18;12.40;99.90
8892;DHT22;4482;54.332;10.118;2022-10-16T06:37:45;12.50;99.90
8892;DHT22;4482;54.332;10.118;2022-10-16T06:40:11;12.50;99.90
8892;DHT22;4482;54.332;10.118;2022-10-16T06:42:40;12.60;99.90
8892;DHT22;4482;54.332;10.118;2022-10-16T06:45:07;12.60;99.90
8892;DHT22;4482;54.332;10.118;2022-10-16T06:47:36;12.70;99.90
8892;DHT22;4482;54.332;10.118;2022-10-16T06:50:03;12.70;99.90
8892;DHT22;4482;54.332;10.118;2022-10-16T06:52:32;12.80;99.90
8892;DHT22;4482;54.332;10.118;2022-10-16T06:54:59;12.90;99.90
8892;DHT22;4482;54.332;10.118;2022-10-16T06:57:25;12.90;99.90
8892;DHT22;4482;54.332;10.118;2022-10-16T06:59:52;12.90;99.90
8892;DHT22;4482;54.332;10.118;2022-10-16T07:02:19;13.00;99.90
8892;DHT22;4482;54.332;10.118;2022-10-16T07:04:47;13.10;99.90
8892;DHT22;4482;54.332;10.118;2022-10-16T07:07:14;13.10;99.90
8892;DHT22;4482;54.332;10.118;2022-10-16T07:09:41;13.10;99.90
8892;DHT22;4482;54.332;10.118;2022-10-16T07:12:08;13.30;99.90
8892;DHT22;4482;54.332;10.118;2022-10-16T07:14:34;13.40;99.90
8892;DHT22;4482;54.332;10.118;2022-10-16T07:17:02;13.50;99.90
8892;DHT22;4482;54.332;10.118;2022-10-16T07:19:29;13.50;99.90
8892;DHT22;4482;54.332;10.118;2022-10-16T07:21:57;13.40;99.90
8892;DHT22;4482;54.332;10.118;2022-10-16T07:24:24;13.40;99.90
8892;DHT22;4482;54.332;10.118;2022-10-16T07:26:51;13.40;99.90
8892;DHT22;4482;54.332;10.118;2022-10-16T07:29:19;13.50;99.90
8892;DHT22;4482;54.332;10.118;2022-10-16T07:31:47;13.50;99.90
8892;DHT22;4482;54.332;10.118;2022-10-16T07:34:16;13.60;99.90
8892;DHT22;4482;54.332;10.118;2022-10-16T07:36:43;13.70;99.90
8892;DHT22;4482;54.332;10.118;2022-10-16T07:39:12;13.80;99.90
8892;DHT22;4482;54.332;10.118;2022-10-16T07:41:39;13.90;99.90
8892;DHT22;4482;54.332;10.118;2022-10-16T07:44:06;13.80;99.90
8892;DHT22;4482;54.332;10.118;2022-10-16T07:46:33;13.70;99.90
8892;DHT22;4482;54.332;10.118;2022-10-16T07:49:01;13.60;99.90
8892;DHT22;4482;54.332;10.118;2022-10-16T07:51:28;13.50;99.90
8892;DHT22;4482;54.332;10.118;2022-10-16T07:53:55;13.50;99.90
8892;DHT22;4482;54.332;10.118;2022-10-16T07:56:23;13.50;99.90
8892;DHT22;4482;54.332;10.118;2022-10-16T07:58:50;13.50;99.90
8892;DHT22;4482;54.332;10.118;2022-10-16T08:01:18;13.60;99.90
8892;DHT22;4482;54.332;10.118;2022-10-16T08:03:47;13.70;99.90
8892;DHT22;4482;54.332;10.118;2022-10-16T08:06:14;13.80;99.90
8892;DHT22;4482;54.332;10.118;2022-10-16T08:08:41;13.80;99.90
8892;DHT22;4482;54.332;10.118;2022-10-16T08:11:09;13.80;99.90
8892;DHT22;4482;54.332;10.118;2022-10-16T08:13:40;13.70;99.90
8892;DHT22;4482;54.332;10.118;2022-10-16T08:16:07;13.70;99.90
8892;DHT22;4482;54.332;10.118;2022-10-16T08:18:35;13.80;99.90
8892;DHT22;4482;54.332;10.118;2022-10-16T08:21:03;13.80;99.90
8892;DHT22;4482;54.332;10.118;2022-10-16T08:23:31;13.90;99.90
8892;DHT22;4482;54.332;10.118;2022-10-16T08:26:04;13.90;99.90
8892;DHT22;4482;54.332;10.118;2022-10-16T08:28:31;14.00;99.90
8892;DHT22;4482;54.332;10.118;2022-10-16T08:31:06;14.00;99.90
8892;DHT22;4482;54.332;10.118;2022-10-16T08:33:33;14.10;99.90
8892;DHT22;4482;54.332;10.118;2022-10-16T08:36:01;14.10;99.90
8892;DHT22;4482;54.332;10.118;2022-10-16T08:38:28;14.20;99.90
8892;DHT22;4482;54.332;10.118;2022-10-16T08:41:02;14.20;99.90
8892;DHT22;4482;54.332;10.118;2022-10-16T08:43:50;14.30;99.90
8892;DHT22;4482;54.332;10.118;2022-10-16T08:46:31;14.30;99.90
8892;DHT22;4482;54.332;10.118;2022-10-16T08:49:03;14.40;99.90
8892;DHT22;4482;54.332;10.118;2022-10-16T08:51:32;14.40;99.90
8892;DHT22;4482;54.332;10.118;2022-10-16T08:54:01;14.50;99.90
8892;DHT22;4482;54.332;10.118;2022-10-16T08:56:29;14.50;99.90
8892;DHT22;4482;54.332;10.118;2022-10-16T08:58:58;14.50;99.90
8892;DHT22;4482;54.332;10.118;2022-10-16T09:01:35;14.60;99.90
8892;DHT22;4482;54.332;10.118;2022-10-16T09:04:26;14.60;99.90
8892;DHT22;4482;54.332;10.118;2022-10-16T09:06:57;14.60;99.90
8892;DHT22;4482;54.332;10.118;2022-10-16T09:09:45;14.60;99.90
8892;DHT22;4482;54.332;10.118;2022-10-16T09:12:17;14.70;99.90
8892;DHT22;4482;54.332;10.118;2022-10-16T09:14:59;14.80;99.90
8892;DHT22;4482;54.332;10.118;2022-10-16T09:17:37;14.80;99.90
8892;DHT22;4482;54.332;10.118;2022-10-16T09:20:30;14.80;99.90
8892;DHT22;4482;54.332;10.118;2022-10-16T09:23:10;14.90;99.90
8892;DHT22;4482;54.332;10.118;2022-10-16T09:25:40;15.00;99.90
8892;DHT22;4482;54.332;10.118;2022-10-16T09:28:08;15.00;99.90
8892;DHT22;4482;54.332;10.118;2022-10-16T09:30:36;15.10;99.90
8892;DHT22;4482;54.332;10.118;2022-10-16T09:33:05;15.20;99.90
8892;DHT22;4482;54.332;10.118;2022-10-16T09:35:36;15.20;99.90
8892;DHT22;4482;54.332;10.118;2022-10-16T09:38:03;15.20;99.90
8892;DHT22;4482;54.332;10.118;2022-10-16T09:40:34;15.20;99.90
8892;DHT22;4482;54.332;10.118;2022-10-16T09:43:06;15.20;99.90
8892;DHT22;4482;54.332;10.118;2022-10-16T09:45:39;15.30;99.90
8892;DHT22;4482;54.332;10.118;2022-10-16T09:48:12;15.30;99.90
8892;DHT22;4482;54.332;10.118;2022-10-16T09:50:39;15.40;99.90
8892;DHT22;4482;54.332;10.118;2022-10-16T09:53:11;15.60;99.90
8892;DHT22;4482;54.332;10.118;2022-10-16T09:55:48;15.80;99.90
8892;DHT22;4482;54.332;10.118;2022-10-16T09:58:16;16.00;99.90
8892;DHT22;4482;54.332;10.118;2022-10-16T10:00:49;16.10;99.90
8892;DHT22;4482;54.332;10.118;2022-10-16T10:03:33;16.30;99.90
8892;DHT22;4482;54.332;10.118;2022-10-16T10:06:15;16.50;99.90
8892;DHT22;4482;54.332;10.118;2022-10-16T10:08:54;16.60;99.90
8892;DHT22;4482;54.332;10.118;2022-10-16T10:11:36;16.40;99.90
8892;DHT22;4482;54.332;10.118;2022-10-16T10:14:04;16.20;99.90
8892;DHT22;4482;54.332;10.118;2022-10-16T10:16:33;16.20;99.90
8892;DHT22;4482;54.332;10.118;2022-10-16T10:19:02;16.10;99.90
8892;DHT22;4482;54.332;10.118;2022-10-16T10:21:29;16.20;99.90
8892;DHT22;4482;54.332;10.118;2022-10-16T10:23:59;16.40;99.90
8892;DHT22;4482;54.332;10.118;2022-10-16T10:26:28;16.60;99.90
8892;DHT22;4482;54.332;10.118;2022-10-16T10:29:02;16.60;99.90
8892;DHT22;4482;54.332;10.118;2022-10-16T10:31:35;16.50;99.90
8892;DHT22;4482;54.332;10.118;2022-10-16T10:34:17;16.40;99.90
8892;DHT22;4482;54.332;10.118;2022-10-16T10:36:51;16.40;99.90
8892;DHT22;4482;54.332;10.118;2022-10-16T10:39:27;16.40;99.90
8892;DHT22;4482;54.332;10.118;2022-10-16T10:42:17;16.50;99.90
8892;DHT22;4482;54.332;10.118;2022-10-16T10:44:56;16.40;99.90
8892;DHT22;4482;54.332;10.118;2022-10-16T10:47:30;16.60;99.90
8892;DHT22;4482;54.332;10.118;2022-10-16T10:50:07;16.80;99.90
8892;DHT22;4482;54.332;10.118;2022-10-16T10:52:42;16.70;99.90
8892;DHT22;4482;54.332;10.118;2022-10-16T10:55:19;16.70;99.90
8892;DHT22;4482;54.332;10.118;2022-10-16T10:58:18;16.70;99.90
8892;DHT22;4482;54.332;10.118;2022-10-16T11:00:55;16.50;99.90
8892;DHT22;4482;54.332;10.118;2022-10-16T11:03:35;16.40;99.90
8892;DHT22;4482;54.332;10.118;2022-10-16T11:06:10;16.30;99.90
8892;DHT22;4482;54.332;10.118;2022-10-16T11:08:42;16.30;99.90
8892;DHT22;4482;54.332;10.118;2022-10-16T11:11:15;16.30;99.90
8892;DHT22;4482;54.332;10.118;2022-10-16T11:13:48;16.30;99.90
8892;DHT22;4482;54.332;10.118;2022-10-16T11:16:22;16.30;99.90
8892;DHT22;4482;54.332;10.118;2022-10-16T11:18:58;16.40;99.90
8892;DHT22;4482;54.332;10.118;2022-10-16T11:21:30;16.40;99.90
8892;DHT22;4482;54.332;10.118;2022-10-16T11:24:06;16.50;99.90
8892;DHT22;4482;54.332;10.118;2022-10-16T11:26:41;16.50;99.90
8892;DHT22;4482;54.332;10.118;2022-10-16T11:29:13;16.40;99.90
8892;DHT22;4482;54.332;10.118;2022-10-16T11:31:46;16.40;99.90
8892;DHT22;4482;54.332;10.118;2022-10-16T11:34:19;16.40;99.90
8892;DHT22;4482;54.332;10.118;2022-10-16T11:36:52;16.40;99.90
8892;DHT22;4482;54.332;10.118;2022-10-16T11:39:21;16.40;99.90
8892;DHT22;4482;54.332;10.118;2022-10-16T11:41:50;16.40;99.90
8892;DHT22;4482;54.332;10.118;2022-10-16T11:44:31;16.50;99.90
8892;DHT22;4482;54.332;10.118;2022-10-16T11:47:09;16.50;99.90
8892;DHT22;4482;54.332;10.118;2022-10-16T11:49:37;16.40;99.90
8892;DHT22;4482;54.332;10.118;2022-10-16T11:52:12;16.40;99.90
8892;DHT22;4482;54.332;10.118;2022-10-16T11:54:45;16.50;99.90
8892;DHT22;4482;54.332;10.118;2022-10-16T11:57:17;16.50;99.90
8892;DHT22;4482;54.332;10.118;2022-10-16T11:59:46;16.50;99.90
8892;DHT22;4482;54.332;10.118;2022-10-16T12:02:38;16.40;99.90
8892;DHT22;4482;54.332;10.118;2022-10-16T12:05:20;16.50;99.90
8892;DHT22;4482;54.332;10.118;2022-10-16T12:07:55;16.40;99.90
8892;DHT22;4482;54.332;10.118;2022-10-16T12:10:28;16.40;99.90
8892;DHT22;4482;54.332;10.118;2022-10-16T12:12:57;16.50;99.90
8892;DHT22;4482;54.332;10.118;2022-10-16T12:15:27;16.50;99.90
8892;DHT22;4482;54.332;10.118;2022-10-16T12:17:55;16.60;99.90
8892;DHT22;4482;54.332;10.118;2022-10-16T12:20:28;16.70;99.90
8892;DHT22;4482;54.332;10.118;2022-10-16T12:23:00;16.60;99.90
8892;DHT22;4482;54.332;10.118;2022-10-16T12:25:29;16.50;99.90
8892;DHT22;4482;54.332;10.118;2022-10-16T12:28:03;16.40;99.90
8892;DHT22;4482;54.332;10.118;2022-10-16T12:30:32;16.30;99.90
8892;DHT22;4482;54.332;10.118;2022-10-16T12:33:02;16.30;99.90
8892;DHT22;4482;54.332;10.118;2022-10-16T12:35:32;16.40;99.90
8892;DHT22;4482;54.332;10.118;2022-10-16T12:38:12;16.50;99.90
8892;DHT22;4482;54.332;10.118;2022-10-16T12:40:43;16.50;99.90
8892;DHT22;4482;54.332;10.118;2022-10-16T12:43:13;16.40;99.90
8892;DHT22;4482;54.332;10.118;2022-10-16T12:46:00;16.40;99.90
8892;DHT22;4482;54.332;10.118;2022-10-16T12:48:27;16.40;99.90
8892;DHT22;4482;54.332;10.118;2022-10-16T12:50:54;16.40;99.90
8892;DHT22;4482;54.332;10.118;2022-10-16T12:53:24;16.60;99.90
8892;DHT22;4482;54.332;10.118;2022-10-16T12:56:04;16.70;99.90
8892;DHT22;4482;54.332;10.118;2022-10-16T12:58:56;16.70;99.90
8892;DHT22;4482;54.332;10.118;2022-10-16T13:01:34;16.70;99.90
8892;DHT22;4482;54.332;10.118;2022-10-16T13:07:03;16.50;99.90
8892;DHT22;4482;54.332;10.118;2022-10-16T13:09:48;16.40;99.90
8892;DHT22;4482;54.332;10.118;2022-10-16T13:12:28;16.10;99.90
8892;DHT22;4482;54.332;10.118;2022-10-16T13:15:14;16.00;99.90
8892;DHT22;4482;54.332;10.118;2022-10-16T13:17:52;15.90;99.90
8892;DHT22;4482;54.332;10.118;2022-10-16T13:20:25;15.90;99.90
8892;DHT22;4482;54.332;10.118;2022-10-16T13:23:02;15.80;99.90
8892;DHT22;4482;54.332;10.118;2022-10-16T13:25:42;15.70;99.90
8892;DHT22;4482;54.332;10.118;2022-10-16T13:28:11;15.60;99.90
8892;DHT22;4482;54.332;10.118;2022-10-16T13:30:41;15.60;99.90
8892;DHT22;4482;54.332;10.118;2022-10-16T13:33:14;15.60;99.90
8892;DHT22;4482;54.332;10.118;2022-10-16T13:35:48;15.60;99.90
8892;DHT22;4482;54.332;10.118;2022-10-16T13:38:18;15.70;99.90
8892;DHT22;4482;54.332;10.118;2022-10-16T13:40:51;15.60;99.90
8892;DHT22;4482;54.332;10.118;2022-10-16T13:43:21;15.60;99.90
8892;DHT22;4482;54.332;10.118;2022-10-16T13:45:57;15.70;99.90
8892;DHT22;4482;54.332;10.118;2022-10-16T13:48:24;15.70;99.90
8892;DHT22;4482;54.332;10.118;2022-10-16T13:51:03;15.70;99.90
8892;DHT22;4482;54.332;10.118;2022-10-16T13:53:32;15.70;99.90
8892;DHT22;4482;54.332;10.118;2022-10-16T13:56:02;15.70;99.90
8892;DHT22;4482;54.332;10.118;2022-10-16T13:58:30;15.70;99.90
8892;DHT22;4482;54.332;10.118;2022-10-16T14:00:59;15.70;99.90
8892;DHT22;4482;54.332;10.118;2022-10-16T14:03:27;15.70;99.90
8892;DHT22;4482;54.332;10.118;2022-10-16T14:05:56;15.80;99.90
8892;DHT22;4482;54.332;10.118;2022-10-16T14:08:25;15.80;99.90
8892;DHT22;4482;54.332;10.118;2022-10-16T14:10:56;15.80;99.90
8892;DHT22;4482;54.332;10.118;2022-10-16T14:13:29;15.80;99.90
8892;DHT22;4482;54.332;10.118;2022-10-16T14:15:57;15.80;99.90
8892;DHT22;4482;54.332;10.118;2022-10-16T14:18:27;15.70;99.90
8892;DHT22;4482;54.332;10.118;2022-10-16T14:20:55;15.70;99.90
8892;DHT22;4482;54.332;10.118;2022-10-16T14:23:30;15.70;99.90
8892;DHT22;4482;54.332;10.118;2022-10-16T14:26:11;15.70;99.90
8892;DHT22;4482;54.332;10.118;2022-10-16T14:28:41;15.80;99.90
8892;DHT22;4482;54.332;10.118;2022-10-16T14:31:28;15.80;99.90
8892;DHT22;4482;54.332;10.118;2022-10-16T14:33:55;15.80;99.90
8892;DHT22;4482;54.332;10.118;2022-10-16T14:36:24;15.90;99.90
8892;DHT22;4482;54.332;10.118;2022-10-16T14:38:58;15.90;99.90
8892;DHT22;4482;54.332;10.118;2022-10-16T14:41:26;15.80;99.90
8892;DHT22;4482;54.332;10.118;2022-10-16T14:43:56;15.80;99.90
8892;DHT22;4482;54.332;10.118;2022-10-16T14:46:30;15.80;99.90
8892;DHT22;4482;54.332;10.118;2022-10-16T14:49:03;15.70;99.90
8892;DHT22;4482;54.332;10.118;2022-10-16T14:51:31;15.60;99.90
8892;DHT22;4482;54.332;10.118;2022-10-16T14:53:58;15.50;99.90
8892;DHT22;4482;54.332;10.118;2022-10-16T14:56:28;15.50;99.90
8892;DHT22;4482;54.332;10.118;2022-10-16T14:58:57;15.50;99.90
8892;DHT22;4482;54.332;10.118;2022-10-16T15:01:24;15.50;99.90
8892;DHT22;4482;54.332;10.118;2022-10-16T15:03:51;15.50;99.90
8892;DHT22;4482;54.332;10.118;2022-10-16T15:06:20;15.40;99.90
8892;DHT22;4482;54.332;10.118;2022-10-16T15:08:47;15.30;99.90
8892;DHT22;4482;54.332;10.118;2022-10-16T15:11:15;15.30;99.90
8892;DHT22;4482;54.332;10.118;2022-10-16T15:13:43;15.30;99.90
8892;DHT22;4482;54.332;10.118;2022-10-16T15:16:13;15.30;99.90
8892;DHT22;4482;54.332;10.118;2022-10-16T15:18:40;15.20;99.90
8892;DHT22;4482;54.332;10.118;2022-10-16T15:21:07;15.10;99.90
8892;DHT22;4482;54.332;10.118;2022-10-16T15:23:34;15.10;99.90
8892;DHT22;4482;54.332;10.118;2022-10-16T15:26:01;15.00;99.90
8892;DHT22;4482;54.332;10.118;2022-10-16T15:28:28;15.00;99.90
8892;DHT22;4482;54.332;10.118;2022-10-16T15:30:55;14.90;99.90
8892;DHT22;4482;54.332;10.118;2022-10-16T15:33:28;14.90;99.90
8892;DHT22;4482;54.332;10.118;2022-10-16T15:35:59;14.80;99.90
8892;DHT22;4482;54.332;10.118;2022-10-16T15:38:27;14.80;99.90
8892;DHT22;4482;54.332;10.118;2022-10-16T15:40:54;14.80;99.90
8892;DHT22;4482;54.332;10.118;2022-10-16T15:43:21;14.70;99.90
8892;DHT22;4482;54.332;10.118;2022-10-16T15:45:59;14.60;99.90
8892;DHT22;4482;54.332;10.118;2022-10-16T15:48:28;14.60;99.90
8892;DHT22;4482;54.332;10.118;2022-10-16T15:50:55;14.50;99.90
8892;DHT22;4482;54.332;10.118;2022-10-16T15:53:22;14.40;99.90
8892;DHT22;4482;54.332;10.118;2022-10-16T15:55:49;14.40;99.90
8892;DHT22;4482;54.332;10.118;2022-10-16T15:58:16;14.30;99.90
8892;DHT22;4482;54.332;10.118;2022-10-16T16:00:42;14.20;99.90
8892;DHT22;4482;54.332;10.118;2022-10-16T16:03:10;14.20;99.90
8892;DHT22;4482;54.332;10.118;2022-10-16T16:05:39;14.10;99.90
8892;DHT22;4482;54.332;10.118;2022-10-16T16:08:06;14.10;99.90